CMA CGM Homere — MQBL6 — position and weather

sailwx.info

Track history (hours):
 
Tides and Currents Weather Stations Pressure Air Temp Water Temp Dewpoint Dewpoint Depression Visibility Wind Speed Wind Dir Waves Ship Positions

CMA CGM Homere

Last reported at 2017-Jan-24 16:26 UTC. Time now 2017-Jan-24 19:26 UTC.
Position N 39°22' W 000°12'.

Length 170 m; draft 8 m.

Type: Ship (hazmat cat D). MMSI: 235052314.

Date/timePositionNaut miles runAvg speedWind from/ knotsBaromVisibWave heightAir tempDewpointWater temp
2017-Jan-24 16:26N 39°22' W 000°12'8 4.2
2017-Jan-24 14:32N 39°27' W 000°19'0 0.0
2017-Jan-24 12:26N 39°27' W 000°19'0 0.0
2017-Jan-24 11:32N 39°27' W 000°19'0 0.0
2017-Jan-24 10:32N 39°27' W 000°19'0 0.0
2017-Jan-24 09:29N 39°27' W 000°19'0 0.0
2017-Jan-24 08:29N 39°27' W 000°19'0 0.0
2017-Jan-24 07:23N 39°27' W 000°19'0 0.0
2017-Jan-24 05:32N 39°27' W 000°19'0 0.0
2017-Jan-24 04:29N 39°27' W 000°19'0 0.0
2017-Jan-24 03:29N 39°27' W 000°19'0 0.0
2017-Jan-24 02:17N 39°27' W 000°19'0 0.0
2017-Jan-24 01:29N 39°27' W 000°19'0 0.0
2017-Jan-24 00:29N 39°27' W 000°19'0 0.0
2017-Jan-23 23:23N 39°27' W 000°19'0 0.0
2017-Jan-23 20:17N 39°27' W 000°19'0 0.0
2017-Jan-23 18:11N 39°27' W 000°19'0 0.0
2017-Jan-23 17:17N 39°27' W 000°19'0 0.0
2017-Jan-23 16:29N 39°27' W 000°19'0 0.0
2017-Jan-23 15:27N 39°27' W 000°19'4 4.6
2017-Jan-23 14:33N 39°25' W 000°15'10 2.5
2017-Jan-23 10:33N 39°28' W 000°04'1 0.7
2017-Jan-23 09:22N 39°28' W 000°02'54 7.5
2017-Jan-23 02:12N 39°45' E 001°04'812.9
2017-Jan-23 01:33N 39°50' E 001°13'1313.0
2017-Jan-23 00:33N 39°57' E 001°27'2 2.0
2017-Jan-22 23:33N 39°55' E 001°28'5 5.3
2017-Jan-22 22:33N 39°51' E 001°24'5 5.3
2017-Jan-22 21:33N 39°47' E 001°20'5 5.2
2017-Jan-22 20:33N 39°43' E 001°15'29 2.0
2017-Jan-22 06:29N 39°15' E 001°22'1415.4
2017-Jan-22 05:33N 39°13' E 001°41'1515.4
2017-Jan-22 04:33N 39°10' E 002°00'1615.8
2017-Jan-22 03:33N 39°07' E 002°20'1615.8
2017-Jan-22 02:33N 39°04' E 002°40'1615.9
2017-Jan-22 01:33N 39°00' E 003°00'1515.6
2017-Jan-22 00:33N 38°57' E 003°20'1615.4
2017-Jan-21 23:32N 38°54' E 003°40'49915.9
2017-Jan-20 16:10N 36°34' E 013°46'1016.7
2017-Jan-20 15:33N 36°30' E 013°58'1716.5
2017-Jan-20 14:33N 36°24' E 014°17'1616.4
2017-Jan-20 13:33N 36°19' E 014°36'  
Track history (hours):
 
Tides and Currents Weather Stations Pressure Air Temp Water Temp Dewpoint Dewpoint Depression Visibility Wind Speed Wind Dir Waves Ship Positions

CMA CGM Homere

Last reported at 2017-Jan-24 16:26 UTC. Time now 2017-Jan-24 19:26 UTC.
Position N 39°22' W 000°12'.

Length 170 m; draft 8 m.

Type: Ship (hazmat cat D). MMSI: 235052314.

Date/timePositionNaut miles runAvg speedWind from/ knotsBaromVisibWave heightAir tempDewpointWater temp
2017-Jan-24 16:26N 39°22' W 000°12'8 4.2
2017-Jan-24 14:32N 39°27' W 000°19'0 0.0
2017-Jan-24 12:26N 39°27' W 000°19'0 0.0
2017-Jan-24 11:32N 39°27' W 000°19'0 0.0
2017-Jan-24 10:32N 39°27' W 000°19'0 0.0
2017-Jan-24 09:29N 39°27' W 000°19'0 0.0
2017-Jan-24 08:29N 39°27' W 000°19'0 0.0
2017-Jan-24 07:23N 39°27' W 000°19'0 0.0
2017-Jan-24 05:32N 39°27' W 000°19'0 0.0
2017-Jan-24 04:29N 39°27' W 000°19'0 0.0
2017-Jan-24 03:29N 39°27' W 000°19'0 0.0
2017-Jan-24 02:17N 39°27' W 000°19'0 0.0
2017-Jan-24 01:29N 39°27' W 000°19'0 0.0
2017-Jan-24 00:29N 39°27' W 000°19'0 0.0
2017-Jan-23 23:23N 39°27' W 000°19'0 0.0
2017-Jan-23 20:17N 39°27' W 000°19'0 0.0
2017-Jan-23 18:11N 39°27' W 000°19'0 0.0
2017-Jan-23 17:17N 39°27' W 000°19'0 0.0
2017-Jan-23 16:29N 39°27' W 000°19'0 0.0
2017-Jan-23 15:27N 39°27' W 000°19'4 4.6
2017-Jan-23 14:33N 39°25' W 000°15'10 2.5
2017-Jan-23 10:33N 39°28' W 000°04'1 0.7
2017-Jan-23 09:22N 39°28' W 000°02'54 7.5
2017-Jan-23 02:12N 39°45' E 001°04'812.9
2017-Jan-23 01:33N 39°50' E 001°13'1313.0
2017-Jan-23 00:33N 39°57' E 001°27'2 2.0
2017-Jan-22 23:33N 39°55' E 001°28'5 5.3
2017-Jan-22 22:33N 39°51' E 001°24'5 5.3
2017-Jan-22 21:33N 39°47' E 001°20'5 5.2
2017-Jan-22 20:33N 39°43' E 001°15'29 2.0
2017-Jan-22 06:29N 39°15' E 001°22'1415.4
2017-Jan-22 05:33N 39°13' E 001°41'1515.4
2017-Jan-22 04:33N 39°10' E 002°00'1615.8
2017-Jan-22 03:33N 39°07' E 002°20'1615.8
2017-Jan-22 02:33N 39°04' E 002°40'1615.9
2017-Jan-22 01:33N 39°00' E 003°00'1515.6
2017-Jan-22 00:33N 38°57' E 003°20'1615.4
2017-Jan-21 23:32N 38°54' E 003°40'49915.9
2017-Jan-20 16:10N 36°34' E 013°46'1016.7
2017-Jan-20 15:33N 36°30' E 013°58'1716.5
2017-Jan-20 14:33N 36°24' E 014°17'1616.4
2017-Jan-20 13:33N 36°19' E 014°36'  

Dump ship's entire track history